| time (UTC) | temp F | wind direction | speed MPH | gust MPH | rain 1hr in | rain 24hr in | rain mn in | humidity % | barometer mb |
| 20260903183038 | 79 | 339 | 4.0 | 13.0 | 0.00 | 0.54 | 0.00 | 53 | 1009.1 |
| 20260903181532 | 78 | 285 | 6.0 | 12.0 | 0.00 | 0.54 | 0.00 | 53 | 1009.1 |
| 20260903180033 | 78 | 306 | 5.0 | 11.0 | 0.00 | 0.54 | 0.00 | 53 | 1009.4 |
| 20260903174523 | 78 | 289 | 3.0 | 11.0 | 0.00 | 0.54 | 0.00 | 51 | 1009.4 |
| 20260903173018 | 78 | 308 | 4.0 | 10.0 | 0.00 | 0.54 | 0.00 | 54 | 1009.4 |
| 20260903171518 | 78 | 306 | 4.0 | 11.0 | 0.00 | 0.54 | 0.00 | 51 | 1009.4 |
| 20260903170012 | 78 | 280 | 6.0 | 14.0 | 0.00 | 0.54 | 0.00 | 49 | 1009.5 |
| 20260903164507 | 78 | 300 | 5.0 | 12.0 | 0.00 | 0.54 | 0.00 | 44 | 1009.5 |
| 20260903163002 | 77 | 290 | 6.0 | 14.0 | 0.00 | 0.54 | 0.00 | 34 | 1009.6 |
| 20260903161600 | 76 | 296 | 4.0 | 13.0 | 0.00 | 0.54 | 0.00 | 32 | 1009.8 |
| 20260903160054 | 74 | 302 | 4.0 | 11.0 | 0.00 | 0.54 | 0.00 | 33 | 1009.9 |
| 20260903154557 | 74 | 299 | 5.0 | 13.0 | 0.00 | 0.54 | 0.00 | 32 | 1010.2 |
| 20260903153050 | 73 | 267 | 5.0 | 12.0 | 0.00 | 0.54 | 0.00 | 32 | 1010.2 |
| 20260903151549 | 73 | 289 | 2.0 | 5.0 | 0.00 | 0.54 | 0.00 | 32 | 1010.2 |
| 20260903150059 | 73 | 288 | 2.0 | 8.0 | 0.00 | 0.54 | 0.00 | 32 | 1010.2 |
| 20260903144552 | 73 | 293 | 2.0 | 8.0 | 0.00 | 0.54 | 0.00 | 32 | 1010.2 |
| 20260903143048 | 73 | 273 | 1.0 | 8.0 | 0.00 | 0.54 | 0.00 | 32 | 1010.2 |
| 20260903141547 | 73 | 277 | 3.0 | 8.0 | 0.00 | 0.54 | 0.00 | 32 | 1010.1 |
| 20260903140047 | 73 | 271 | 2.0 | 11.0 | 0.00 | 0.54 | 0.00 | 31 | 1010.0 |
| 20260903134548 | 73 | 280 | 5.0 | 13.0 | 0.00 | 1.53 | 0.00 | 31 | 1010.1 |
| 20260903133041 | 72 | 277 | 5.0 | 13.0 | 0.00 | 1.53 | 0.00 | 32 | 1010.1 |
| 20260903131543 | 71 | 261 | 8.0 | 13.0 | 0.00 | 1.53 | 0.00 | 32 | 1010.2 |
| 20260903130043 | 71 | 266 | 5.0 | 11.0 | 0.00 | 1.53 | 0.00 | 32 | 1010.2 |
| 20260903124534 | 70 | 280 | 3.0 | 11.0 | 0.00 | 1.70 | 0.00 | 32 | 1010.2 |
| 20260903123040 | 70 | 275 | 4.0 | 14.0 | 0.00 | 1.70 | 0.00 | 32 | 1010.3 |
| 20260903121549 | 69 | 265 | 5.0 | 12.0 | 0.00 | 1.70 | 0.00 | 32 | 1010.2 |
| 20260903120029 | 69 | 281 | 3.0 | 12.0 | 0.00 | 1.70 | 0.00 | 33 | 1010.1 |
| 20260903114526 | 69 | 273 | 6.0 | 13.0 | 0.00 | 1.70 | 0.00 | 33 | 1009.9 |
| 20260903113023 | 69 | 288 | 4.0 | 14.0 | 0.00 | 1.70 | 0.00 | 33 | 1009.7 |
| 20260903111524 | 68 | 279 | 6.0 | 11.0 | 0.00 | 1.70 | 0.00 | 33 | 1009.5 |
| 20260903110018 | 68 | 281 | 8.0 | 13.0 | 0.00 | 1.70 | 0.00 | 33 | 1009.2 |
| 20260903104523 | 68 | 339 | 7.0 | 13.0 | 0.00 | 1.70 | 0.00 | 33 | 1009.1 |
| 20260903103015 | 68 | 280 | 5.0 | 12.0 | 0.00 | 1.70 | 0.00 | 33 | 1009.0 |
| 20260903101513 | 68 | 287 | 3.0 | 11.0 | 0.00 | 1.70 | 0.00 | 33 | 1008.9 |
| 20260903100030 | 68 | 282 | 3.0 | 12.0 | 0.00 | 1.70 | 0.00 | 33 | 1008.7 |
| 20260903094514 | 68 | 292 | 4.0 | 10.0 | 0.00 | 1.70 | 0.00 | 33 | 1008.6 |
| 20260903093011 | 68 | 300 | 5.0 | 13.0 | 0.00 | 1.70 | 0.00 | 33 | 1008.7 |
| 20260903091510 | 68 | 287 | 5.0 | 12.0 | 0.00 | 1.70 | 0.00 | 33 | 1008.9 |
| 20260903090010 | 68 | 278 | 5.0 | 13.0 | 0.00 | 1.70 | 0.00 | 33 | 1008.7 |
| 20260903084516 | 68 | 269 | 3.0 | 12.0 | 0.00 | 1.70 | 0.00 | 33 | 1008.9 |
| 20260903083010 | 68 | 248 | 2.0 | 11.0 | 0.00 | 1.70 | 0.00 | 33 | 1008.6 |
| 20260903081508 | 68 | 264 | 4.0 | 12.0 | 0.00 | 1.70 | 0.00 | 33 | 1008.3 |
| 20260903080007 | 68 | 293 | 4.0 | 11.0 | 0.00 | 1.70 | 0.00 | 33 | 1008.1 |
| 20260903074507 | 68 | 277 | 7.0 | 17.0 | 0.00 | 1.70 | 0.00 | 33 | 1008.5 |
| 20260903073009 | 68 | 280 | 5.0 | 11.0 | 0.00 | 1.70 | 0.00 | 33 | 1008.3 |
| 20260903071559 | 68 | 275 | 7.0 | 16.0 | 0.00 | 1.70 | 0.00 | 33 | 1008.5 |
| 20260903070158 | 68 | 285 | 7.0 | 15.0 | 0.00 | 1.70 | 0.00 | 33 | 1008.6 |
| 20260903064555 | 68 | 262 | 7.0 | 15.0 | 0.00 | 1.70 | 0.00 | 33 | 1008.8 |
| 20260903063053 | 68 | 281 | 8.0 | 17.0 | 0.00 | 1.70 | 0.00 | 33 | 1008.8 |
| 20260903061554 | 67 | 260 | 3.0 | 11.0 | 0.00 | 1.70 | 0.00 | 33 | 1008.8 |
| 20260903060059 | 68 | 267 | 2.0 | 7.0 | 0.00 | 1.70 | 0.00 | 33 | 1008.9 |
| 20260903054546 | 68 | 221 | 2.0 | 12.0 | 0.00 | 1.70 | 0.00 | 33 | 1008.8 |
| 20260903053045 | 68 | 269 | 4.0 | 13.0 | 0.00 | 1.70 | 0.00 | 33 | 1009.0 |
| 20260903051540 | 68 | 250 | 5.0 | 15.0 | 0.00 | 1.70 | 0.00 | 33 | 1008.8 |
| 20260903050043 | 68 | 264 | 5.0 | 13.0 | 0.00 | 1.70 | 0.00 | 33 | 1008.9 |
| 20260903044539 | 68 | 264 | 4.0 | 12.0 | 0.00 | 1.70 | 0.00 | 33 | 1008.7 |
| 20260903043033 | 67 | 277 | 5.0 | 12.0 | 0.00 | 1.70 | 0.00 | 33 | 1008.7 |
| 20260903041535 | 67 | 248 | 7.0 | 17.0 | 0.00 | 1.70 | 0.00 | 33 | 1008.7 |
| 20260903040028 | 67 | 236 | 5.0 | 12.0 | 0.00 | 1.70 | 0.00 | 33 | 1008.6 |
| 20260903034529 | 67 | 339 | 5.0 | 12.0 | 0.01 | 1.70 | 1.70 | 33 | 1008.8 |
| 20260903033029 | 67 | 250 | 2.0 | 8.0 | 0.03 | 1.70 | 1.70 | 33 | 1009.1 |
| 20260903031533 | 68 | 265 | 2.0 | 9.0 | 0.10 | 1.70 | 1.70 | 33 | 1009.2 |
| 20260903030025 | 68 | 271 | 3.0 | 12.0 | 0.10 | 1.70 | 1.70 | 33 | 1009.4 |
| 20260903024524 | 68 | 242 | 5.0 | 13.0 | 0.09 | 1.69 | 1.69 | 33 | 1009.7 |
| 20260903023024 | 68 | 238 | 2.0 | 12.0 | 0.08 | 1.67 | 1.67 | 33 | 1010.3 |
| 20260903021534 | 68 | 306 | 7.0 | 10.0 | 0.01 | 1.60 | 1.60 | 33 | 1011.1 |
| 20260903020027 | 68 | 232 | 1.0 | 8.0 | 0.01 | 1.60 | 1.60 | 33 | 1009.7 |
| 20260903014521 | 68 | 228 | 4.0 | 12.0 | 0.01 | 1.60 | 1.60 | 34 | 1010.1 |
| 20260903013021 | 68 | 243 | 1.0 | 4.0 | 0.01 | 1.59 | 1.59 | 34 | 1010.3 |
| 20260903011520 | 68 | 244 | 2.0 | 7.0 | 0.10 | 1.59 | 1.59 | 34 | 1010.1 |
| 20260903010022 | 68 | 277 | 3.0 | 16.0 | 0.36 | 1.59 | 1.59 | 35 | 1011.0 |
| 20260903004524 | 68 | 294 | 3.0 | 8.0 | 0.36 | 1.59 | 1.59 | 37 | 1010.7 |
| 20260903003018 | 69 | 296 | 2.0 | 8.0 | 0.35 | 1.58 | 1.58 | 38 | 1009.9 |
| 20260903001517 | 70 | 284 | 7.0 | 26.0 | 0.26 | 1.49 | 1.49 | 40 | 1010.7 |
| 20260903000034 | 73 | 355 | 12.0 | 31.0 | 0.00 | 1.23 | 1.23 | 40 | 1008.4 |
| 20260902234516 | 74 | 234 | 1.0 | 9.0 | 0.00 | 1.23 | 1.23 | 40 | 1007.3 |
| 20260902233015 | 75 | 241 | 2.0 | 11.0 | 0.01 | 1.23 | 1.23 | 39 | 1007.4 |
| 20260902231517 | 77 | 240 | 4.0 | 16.0 | 0.07 | 1.23 | 1.23 | 37 | 1008.1 |
| 20260902230012 | 78 | 290 | 5.0 | 15.0 | 0.07 | 1.23 | 1.23 | 36 | 1008.1 |
| 20260902224512 | 79 | 269 | 1.0 | 5.0 | 0.07 | 1.23 | 1.23 | 39 | 1008.4 |
| 20260902223020 | 80 | 273 | 0.0 | 3.0 | 0.06 | 1.22 | 1.22 | 43 | 1008.8 |
| 20260902221516 | 80 | 273 | 0.0 | 4.0 | 0.00 | 1.15 | 1.15 | 47 | 1007.9 |
| 20260902220023 | 81 | 273 | 0.0 | 5.0 | 0.00 | 1.15 | 1.15 | 50 | 1007.9 |
| 20260902214530 | 81 | 273 | 0.0 | 4.0 | 0.00 | 1.15 | 1.15 | 49 | 1008.3 |
| 20260902213006 | 81 | 273 | 1.0 | 5.0 | 0.00 | 1.15 | 1.15 | 51 | 1008.2 |
| 20260902211505 | 81 | 277 | 0.0 | 8.0 | 0.00 | 1.15 | 1.15 | 52 | 1008.7 |
| 20260902210011 | 81 | 277 | 2.0 | 6.0 | 0.00 | 1.15 | 1.15 | 53 | 1008.6 |
| 20260902204601 | 81 | 281 | 3.0 | 8.0 | 0.00 | 1.15 | 1.15 | 54 | 1009.6 |
| 20260902203100 | 82 | 339 | 1.0 | 6.0 | 0.00 | 1.15 | 1.15 | 51 | 1009.7 |
| 20260902201559 | 82 | 297 | 3.0 | 9.0 | 0.00 | 1.15 | 1.15 | 48 | 1009.9 |
| 20260902200056 | 81 | 300 | 5.0 | 10.0 | 0.00 | 1.15 | 1.15 | 52 | 1010.0 |
| 20260902194555 | 81 | 309 | 3.0 | 9.0 | 0.00 | 1.15 | 1.15 | 46 | 1009.9 |
| 20260902193055 | 80 | 300 | 5.0 | 13.0 | 0.00 | 1.15 | 1.15 | 48 | 1010.2 |
| 20260902191555 | 80 | 287 | 5.0 | 13.0 | 0.00 | 1.15 | 1.15 | 43 | 1010.3 |
| 20260902190053 | 79 | 311 | 4.0 | 13.0 | 0.00 | 1.15 | 1.15 | 43 | 1010.4 |
| 20260902184553 | 79 | 269 | 2.0 | 10.0 | 0.00 | 1.15 | 1.15 | 41 | 1010.2 |